Time;durP1;ratioP1;P1;durP2;ratioP2;P2;SDS_P1;SDS_P2;PMS_P1;PMS_P2;Temp;Humidity;BMP_temperature;BMP_pressure;BME280_temperature;BME280_humidity;BME280_pressure;Samples;Min_cycle;Max_cycle;Signal;HPM_P1;HPM_P2
2021/06/17 00:00:30;;;;;;;9.77;7.45;;;;;;;22.48;65.29;100770.00;5024579;28;20079;-70
2021/06/17 00:02:56;;;;;;;10.88;6.97;;;;;;;22.48;65.33;100772.66;5025090;28;20122;-70
2021/06/17 00:05:28;;;;;;;10.38;7.35;;;;;;;22.47;65.24;100767.59;5026782;28;20029;-70
2021/06/17 00:07:53;;;;;;;11.10;8.00;;;;;;;22.46;65.14;100773.94;5028913;28;20166;-70
2021/06/17 00:10:32;;;;;;;15.15;8.40;;;;;;;22.42;65.42;100767.53;5044367;28;20112;-71
2021/06/17 00:13:00;;;;;;;9.95;7.63;;;;;;;22.40;65.72;100770.41;5030842;28;20053;-70
2021/06/17 00:15:29;;;;;;;11.10;7.70;;;;;;;22.35;65.58;100770.28;5037012;28;20090;-70
2021/06/17 00:17:54;;;;;;;14.55;7.80;;;;;;;22.33;65.68;100762.59;5029162;28;20040;-70
2021/06/17 00:20:22;;;;;;;14.60;10.02;;;;;;;22.37;65.14;100759.50;5019354;28;20082;-70
2021/06/17 00:22:48;;;;;;;14.50;10.20;;;;;;;22.34;65.30;100766.06;5043023;28;20072;-70
2021/06/17 00:25:15;;;;;;;12.60;9.73;;;;;;;22.19;65.42;100763.88;5032819;28;20052;-70
2021/06/17 00:27:41;;;;;;;19.77;11.00;;;;;;;22.26;65.19;100761.94;5043210;28;20275;-70
2021/06/17 00:30:08;;;;;;;17.48;10.88;;;;;;;22.11;65.38;100756.31;5037917;28;20037;-70
2021/06/17 00:32:34;;;;;;;12.57;10.07;;;;;;;22.06;65.33;100751.75;5024821;28;20045;-70
2021/06/17 00:35:00;;;;;;;13.18;10.18;;;;;;;21.97;65.51;100746.03;5030283;28;20052;-71
2021/06/17 00:37:25;;;;;;;16.33;10.60;;;;;;;21.98;65.02;100746.81;5024270;28;20467;-70
2021/06/17 00:39:52;;;;;;;16.10;10.40;;;;;;;21.95;65.07;100752.56;5041436;28;20041;-70
2021/06/17 00:42:17;;;;;;;12.82;10.13;;;;;;;21.89;65.23;100750.88;5040001;28;20514;-70
2021/06/17 00:44:42;;;;;;;11.90;8.68;;;;;;;21.84;65.30;100748.91;5026549;28;20028;-70
2021/06/17 00:47:08;;;;;;;9.73;7.43;;;;;;;21.82;65.35;100753.63;5041633;28;20037;-70
2021/06/17 00:49:34;;;;;;;13.65;8.60;;;;;;;21.84;65.28;100754.19;5018326;28;20036;-70
2021/06/17 00:52:02;;;;;;;15.07;9.68;;;;;;;21.83;65.46;100757.06;5037299;28;20044;-70
2021/06/17 00:54:33;;;;;;;15.00;9.93;;;;;;;21.83;64.96;100749.97;5048281;28;20438;-70
2021/06/17 00:57:04;;;;;;;15.18;9.18;;;;;;;21.82;64.42;100750.19;5040897;28;20527;-70
2021/06/17 00:59:30;;;;;;;15.38;9.30;;;;;;;21.78;64.87;100750.66;5031351;28;20583;-70
2021/06/17 01:01:56;;;;;;;13.55;8.98;;;;;;;21.76;64.99;100760.63;5047456;28;20033;-70
2021/06/17 01:04:25;;;;;;;16.98;10.82;;;;;;;21.74;64.76;100752.16;5047557;28;20327;-70
2021/06/17 01:06:52;;;;;;;11.45;8.18;;;;;;;21.71;65.02;100746.53;5042864;28;20142;-70
2021/06/17 01:09:45;;;;;;;15.15;9.73;;;;;;;21.66;65.18;100749.03;5045162;28;20552;-70
2021/06/17 01:12:47;;;;;;;15.18;7.78;;;;;;;21.64;65.27;100743.19;5040686;28;20085;-70
2021/06/17 01:15:18;;;;;;;14.15;8.65;;;;;;;21.60;64.88;100742.06;5049059;28;20036;-70
2021/06/17 01:17:51;;;;;;;13.68;8.25;;;;;;;21.57;64.78;100746.78;5030611;28;20417;-70
2021/06/17 01:20:39;;;;;;;15.98;8.23;;;;;;;21.56;64.84;100747.78;5027717;28;20033;-70
2021/06/17 01:23:27;;;;;;;17.88;8.50;;;;;;;21.54;65.52;100736.66;5030104;28;20056;-70
2021/06/17 01:26:13;;;;;;;13.32;8.45;;;;;;;21.47;65.19;100741.25;5029456;28;20041;-71
2021/06/17 01:28:40;;;;;;;12.45;7.45;;;;;;;21.42;64.94;100732.38;5048733;28;20124;-70
2021/06/17 01:31:10;;;;;;;12.57;8.60;;;;;;;21.43;65.24;100734.81;5044755;28;20028;-70
2021/06/17 01:33:40;;;;;;;11.10;9.07;;;;;;;21.40;64.89;100737.91;5036094;28;20041;-70
2021/06/17 01:36:10;;;;;;;13.38;8.38;;;;;;;21.32;65.23;100725.88;5040856;28;20033;-71
2021/06/17 01:38:37;;;;;;;17.98;9.68;;;;;;;21.42;64.19;100737.66;5046734;28;20488;-70
2021/06/17 01:41:04;;;;;;;17.23;8.57;;;;;;;21.37;64.26;100741.00;5026087;28;20028;-70
2021/06/17 01:43:31;;;;;;;15.88;9.18;;;;;;;21.37;63.88;100736.53;5036861;28;20115;-70
2021/06/17 01:45:57;;;;;;;10.88;8.30;;;;;;;21.36;64.27;100742.84;5029675;28;20026;-70
2021/06/17 01:48:23;;;;;;;10.68;8.10;;;;;;;21.23;64.72;100745.72;5047974;28;20414;-71
2021/06/17 01:50:51;;;;;;;19.77;9.45;;;;;;;21.17;64.85;100752.69;5027200;28;20025;-71
2021/06/17 01:53:22;;;;;;;13.75;8.10;;;;;;;21.15;64.86;100752.13;5035819;28;20490;-70
2021/06/17 01:55:49;;;;;;;12.95;9.02;;;;;;;21.11;65.05;100744.88;5027714;28;20036;-71
2021/06/17 01:58:16;;;;;;;12.63;8.02;;;;;;;21.06;65.22;100747.38;5046171;28;20175;-70
2021/06/17 02:00:44;;;;;;;22.33;8.40;;;;;;;21.02;65.51;100739.16;5043839;28;20473;-70
2021/06/17 02:03:11;;;;;;;11.50;7.78;;;;;;;21.01;65.75;100740.16;5036127;28;20059;-70
2021/06/17 02:05:37;;;;;;;14.15;7.50;;;;;;;20.99;65.55;100740.38;5032917;28;20039;-70
2021/06/17 02:08:05;;;;;;;11.00;8.98;;;;;;;20.99;65.06;100737.75;5048451;28;20492;-70
2021/06/17 02:10:31;;;;;;;10.80;8.30;;;;;;;20.98;64.85;100741.44;5046955;28;20032;-70
2021/06/17 02:12:58;;;;;;;12.32;8.10;;;;;;;20.93;64.95;100743.94;5030702;28;20437;-70
2021/06/17 02:15:28;;;;;;;16.25;10.50;;;;;;;20.89;65.17;100741.97;5046556;28;20029;-70
2021/06/17 02:17:56;;;;;;;13.45;8.43;;;;;;;20.87;65.32;100744.84;5044820;28;20041;-70
2021/06/17 02:20:22;;;;;;;12.70;9.57;;;;;;;20.84;65.34;100739.22;5018786;28;20381;-70
2021/06/17 02:22:51;;;;;;;13.27;9.73;;;;;;;20.88;65.15;100740.38;5028615;28;20179;-70
2021/06/17 02:25:17;;;;;;;13.93;9.52;;;;;;;20.76;65.38;100741.13;5040516;28;20039;-71
2021/06/17 02:27:45;;;;;;;16.58;11.63;;;;;;;20.85;64.98;100738.16;5044450;28;20397;-70
2021/06/17 02:30:14;;;;;;;14.55;10.35;;;;;;;20.75;64.99;100742.16;5043263;28;20037;-70
2021/06/17 02:32:43;;;;;;;15.73;9.00;;;;;;;20.74;65.27;100743.19;5042623;28;20037;-70
2021/06/17 02:35:10;;;;;;;17.02;9.50;;;;;;;20.66;65.57;100743.50;5044311;28;20124;-70
2021/06/17 02:37:38;;;;;;;12.80;7.85;;;;;;;20.59;65.80;100740.94;5045817;28;20054;-70
2021/06/17 02:40:05;;;;;;;11.55;7.22;;;;;;;20.59;65.71;100745.41;5028509;28;20025;-70
2021/06/17 02:42:33;;;;;;;12.02;9.23;;;;;;;20.63;66.05;100751.06;5039240;28;20037;-70
2021/06/17 02:44:59;;;;;;;16.42;9.63;;;;;;;20.61;66.02;100751.28;5028134;28;20314;-70
2021/06/17 02:47:25;;;;;;;13.20;8.02;;;;;;;20.56;65.99;100745.84;5029359;28;20045;-70
2021/06/17 02:49:51;;;;;;;12.93;7.72;;;;;;;20.50;66.42;100744.13;5028478;28;20044;-70
2021/06/17 02:52:16;;;;;;;11.80;8.10;;;;;;;20.51;66.35;100748.34;5039132;28;20108;-70
2021/06/17 02:54:42;;;;;;;13.52;8.38;;;;;;;20.46;66.31;100745.59;5041611;28;20045;-70
2021/06/17 02:57:20;;;;;;;14.52;8.48;;;;;;;20.43;66.49;100739.72;5044025;28;20086;-70
2021/06/17 02:59:52;;;;;;;15.27;7.85;;;;;;;20.34;66.42;100748.97;5045461;28;20033;-70
2021/06/17 03:02:35;;;;;;;14.55;8.25;;;;;;;20.28;66.74;100741.94;5039660;28;20155;-70
2021/06/17 03:05:19;;;;;;;;;;;;;;;20.25;66.73;100737.13;5029783;28;20453;-70
2021/06/17 03:07:51;;;;;;;10.88;8.00;;;;;;;20.22;66.83;100735.72;5035322;28;19974;-71
2021/06/17 03:10:21;;;;;;;15.50;8.90;;;;;;;20.23;66.59;100740.00;5041649;28;20040;-70
2021/06/17 03:12:48;;;;;;;16.85;9.45;;;;;;;20.20;66.80;100737.78;5036561;28;20029;-70
2021/06/17 03:15:13;;;;;;;14.18;8.57;;;;;;;20.21;66.67;100738.59;5028650;28;20036;-70
2021/06/17 03:17:43;;;;;;;19.35;8.90;;;;;;;20.17;66.87;100745.31;5024247;28;20047;-70
2021/06/17 03:20:10;;;;;;;9.88;7.47;;;;;;;20.18;66.78;100746.94;5040736;28;20028;-70
2021/06/17 03:22:38;;;;;;;12.60;9.00;;;;;;;20.11;67.05;100738.31;5042936;28;20037;-70
2021/06/17 03:25:08;;;;;;;13.77;10.18;;;;;;;20.11;67.16;100747.00;5038812;28;20028;-70
2021/06/17 03:27:35;;;;;;;12.40;9.50;;;;;;;20.04;67.37;100748.91;5021937;28;20037;-70
2021/06/17 03:30:04;;;;;;;18.80;10.68;;;;;;;20.03;67.39;100749.94;5045793;28;20151;-70
2021/06/17 03:32:32;;;;;;;16.38;9.95;;;;;;;19.98;67.39;100745.31;5049931;28;20052;-70
2021/06/17 03:34:59;;;;;;;23.23;10.13;;;;;;;19.90;67.98;100744.81;5029065;28;20111;-70
2021/06/17 03:37:27;;;;;;;16.05;10.02;;;;;;;19.81;68.28;100741.66;5041371;28;20041;-70
2021/06/17 03:39:55;;;;;;;16.40;9.73;;;;;;;19.77;68.27;100737.88;5043992;28;20037;-70
2021/06/17 03:42:21;;;;;;;21.92;12.77;;;;;;;19.87;67.88;100740.78;5025769;28;20400;-70
2021/06/17 03:44:48;;;;;;;16.27;10.18;;;;;;;19.95;67.51;100732.63;5043238;28;20037;-71
2021/06/17 03:47:15;;;;;;;11.32;8.70;;;;;;;19.85;67.79;100729.69;5037539;28;20074;-70
2021/06/17 03:49:43;;;;;;;17.13;8.75;;;;;;;19.80;67.66;100735.59;5040621;28;20028;-70
2021/06/17 03:52:09;;;;;;;13.65;9.52;;;;;;;19.80;67.83;100730.34;5045332;28;20032;-70
2021/06/17 03:54:36;;;;;;;15.07;9.07;;;;;;;19.83;67.80;100739.63;5046667;28;20040;-70
2021/06/17 03:57:04;;;;;;;12.82;9.43;;;;;;;19.77;68.02;100743.13;5044638;28;20101;-71
2021/06/17 03:59:36;;;;;;;16.30;11.40;;;;;;;19.92;67.65;100751.47;5046432;28;20413;-70
2021/06/17 04:02:02;;;;;;;17.03;10.90;;;;;;;19.92;67.74;100748.84;5027307;28;20436;-70
2021/06/17 04:04:29;;;;;;;20.95;11.68;;;;;;;19.90;67.93;100739.56;5041332;28;20474;-71
2021/06/17 04:06:58;;;;;;;23.10;11.77;;;;;;;19.82;68.15;100743.28;5042099;28;20296;-70
2021/06/17 04:09:27;;;;;;;14.95;9.75;;;;;;;19.92;67.80;100740.16;5041681;28;20549;-70
2021/06/17 04:11:58;;;;;;;18.13;10.07;;;;;;;19.91;67.57;100741.97;5045030;28;20508;-70
2021/06/17 04:14:26;;;;;;;14.07;8.00;;;;;;;19.90;67.43;100744.81;5047547;28;20098;-70
2021/06/17 04:16:52;;;;;;;14.13;9.00;;;;;;;20.01;67.28;100738.84;5058335;28;20037;-70
2021/06/17 04:19:28;;;;;;;12.80;9.40;;;;;;;20.01;67.46;100741.47;5039393;28;20591;-70
2021/06/17 04:22:00;;;;;;;17.15;10.75;;;;;;;20.00;67.50;100732.78;5039574;28;20075;-70
2021/06/17 04:24:27;;;;;;;;;;;;;;;19.96;67.72;100736.84;5043896;28;20036;-70
2021/06/17 04:26:54;;;;;;;16.67;10.90;;;;;;;20.05;67.72;100739.19;5037519;28;19912;-70
2021/06/17 04:29:20;;;;;;;16.83;11.98;;;;;;;20.10;67.51;100734.06;5035781;28;20493;-70
2021/06/17 04:31:48;;;;;;;13.38;9.88;;;;;;;20.02;67.56;100737.78;5041488;28;20064;-70
2021/06/17 04:34:14;;;;;;;14.52;8.45;;;;;;;20.05;67.47;100744.47;5040440;28;20060;-70
2021/06/17 04:36:40;;;;;;;13.30;9.77;;;;;;;20.17;66.83;100740.88;5039251;28;20041;-70
2021/06/17 04:39:07;;;;;;;13.05;9.35;;;;;;;20.31;66.73;100745.97;5039104;28;20044;-70
2021/06/17 04:41:33;;;;;;;18.98;8.63;;;;;;;20.27;66.70;100739.53;5028401;28;20067;-70
2021/06/17 04:44:01;;;;;;;17.85;9.55;;;;;;;20.25;67.20;100749.47;5040898;28;20063;-70
2021/06/17 04:46:29;;;;;;;17.58;9.35;;;;;;;20.43;66.89;100750.25;5043214;28;20558;-70
2021/06/17 04:48:55;;;;;;;13.68;8.40;;;;;;;20.52;66.01;100753.38;5043088;28;20046;-70
2021/06/17 04:51:22;;;;;;;13.13;9.05;;;;;;;20.53;66.41;100749.75;5036103;28;20037;-70
2021/06/17 04:53:50;;;;;;;11.00;8.35;;;;;;;20.57;66.52;100736.94;5027673;28;20063;-70
2021/06/17 04:56:16;;;;;;;10.68;8.50;;;;;;;20.66;65.56;100745.34;5023162;28;20042;-70
2021/06/17 04:58:42;;;;;;;17.08;8.80;;;;;;;20.80;65.55;100746.75;5029245;28;20542;-70
2021/06/17 05:01:08;;;;;;;15.27;9.90;;;;;;;20.98;64.54;100743.25;5015996;28;20073;-70
2021/06/17 05:03:33;;;;;;;11.80;8.38;;;;;;;21.11;64.17;100747.50;5030902;28;20467;-70
2021/06/17 05:06:00;;;;;;;13.77;8.02;;;;;;;21.30;64.17;100748.22;5038556;28;20456;-70
2021/06/17 05:10:56;;;;;;;11.88;8.55;;;;;;;21.71;62.49;100743.88;5025245;28;20245;-70
2021/06/17 05:13:22;;;;;;;15.90;8.40;;;;;;;21.92;62.36;100751.19;5040728;28;20103;-70
2021/06/17 05:15:49;;;;;;;16.05;7.43;;;;;;;22.06;61.67;100749.13;5039345;28;20307;-70
2021/06/17 05:18:16;;;;;;;16.60;7.45;;;;;;;22.31;60.75;100764.69;5038064;28;20043;-70
2021/06/17 05:20:42;;;;;;;14.57;7.47;;;;;;;22.43;60.34;100751.41;5018860;28;20126;-70
2021/06/17 05:23:11;;;;;;;12.10;7.25;;;;;;;22.63;59.19;100753.63;5046244;28;20096;-70
2021/06/17 05:25:36;;;;;;;12.40;7.80;;;;;;;22.81;58.67;100750.00;5037453;28;20177;-70
2021/06/17 05:28:02;;;;;;;15.07;7.82;;;;;;;23.03;58.30;100763.31;5019970;28;20037;-70
2021/06/17 05:30:27;;;;;;;16.40;7.40;;;;;;;23.09;58.18;100762.38;5025275;28;20045;-70
2021/06/17 05:32:53;;;;;;;13.90;7.32;;;;;;;23.29;56.36;100764.53;5044387;28;20057;-70
2021/06/17 05:35:18;;;;;;;12.52;6.95;;;;;;;23.25;56.68;100762.63;5054686;28;20033;-70
2021/06/17 05:37:43;;;;;;;10.30;6.68;;;;;;;23.08;57.02;100760.78;5045019;28;20392;-71
2021/06/17 05:40:09;;;;;;;8.25;6.15;;;;;;;23.19;57.11;100761.75;5039181;28;20060;-70
2021/06/17 05:42:34;;;;;;;14.07;6.97;;;;;;;23.32;56.30;100763.25;5024666;28;20060;-71
2021/06/17 05:45:00;;;;;;;14.02;6.78;;;;;;;23.23;56.75;100759.41;5024632;28;20671;-71
2021/06/17 05:47:25;;;;;;;13.20;6.57;;;;;;;23.32;56.41;100765.91;5045187;28;20036;-71
2021/06/17 05:49:51;;;;;;;10.05;6.22;;;;;;;23.38;56.92;100764.94;5025682;28;20380;-71
2021/06/17 05:52:16;;;;;;;7.97;6.00;;;;;;;23.35;56.61;100770.69;5046884;28;20076;-71
2021/06/17 05:54:42;;;;;;;10.93;6.20;;;;;;;23.42;55.89;100771.34;5042428;28;20041;-71
2021/06/17 05:57:10;;;;;;;11.68;6.20;;;;;;;23.48;55.72;100767.72;5046712;28;20058;-71
2021/06/17 05:59:35;;;;;;;8.77;5.47;;;;;;;23.47;56.36;100770.59;5027839;28;20044;-71
2021/06/17 06:02:01;;;;;;;12.77;6.63;;;;;;;23.41;56.44;100772.38;5038989;28;21520;-71
2021/06/17 06:04:26;;;;;;;9.65;6.47;;;;;;;23.47;56.65;100767.94;5043300;28;20293;-71
2021/06/17 06:06:51;;;;;;;10.18;6.03;;;;;;;23.40;56.25;100770.00;5029795;28;20032;-71
2021/06/17 06:09:17;;;;;;;10.13;5.25;;;;;;;23.30;57.04;100768.78;5047044;28;20508;-71
2021/06/17 06:11:42;;;;;;;10.15;6.35;;;;;;;23.38;57.11;100772.88;5045151;28;20029;-71
2021/06/17 06:14:08;;;;;;;8.70;6.22;;;;;;;23.41;56.88;100774.22;5042805;28;20060;-71
2021/06/17 06:16:36;;;;;;;9.63;6.22;;;;;;;23.40;57.43;100770.78;5046011;28;20045;-71
2021/06/17 06:19:05;;;;;;;18.60;6.55;;;;;;;23.48;56.96;100780.94;5048008;28;20386;-71
2021/06/17 06:21:31;;;;;;;11.75;6.35;;;;;;;23.64;56.50;100783.81;5047947;28;20056;-71
2021/06/17 06:23:56;;;;;;;11.50;6.22;;;;;;;23.71;56.27;100777.31;5019351;28;20044;-71
2021/06/17 06:26:22;;;;;;;10.05;6.45;;;;;;;23.84;56.06;100778.81;5026548;28;20029;-71
2021/06/17 06:28:47;;;;;;;11.40;5.93;;;;;;;23.96;56.21;100781.38;5043960;28;20118;-71
2021/06/17 06:31:13;;;;;;;11.35;6.30;;;;;;;24.24;55.68;100777.75;5046743;28;20086;-70
2021/06/17 06:33:38;;;;;;;9.35;6.22;;;;;;;24.39;54.81;100777.13;5045007;28;20402;-71
2021/06/17 06:36:04;;;;;;;14.88;7.70;;;;;;;24.90;53.06;100786.63;5047455;28;20033;-71
2021/06/17 06:38:29;;;;;;;11.82;5.80;;;;;;;25.18;52.32;100778.38;5047792;28;20098;-71
2021/06/17 06:40:55;;;;;;;15.93;7.10;;;;;;;25.22;52.73;100789.28;5047074;28;20052;-71
2021/06/17 06:43:21;;;;;;;12.15;6.55;;;;;;;25.17;52.98;100784.75;5045221;28;20029;-71
2021/06/17 06:45:48;;;;;;;17.02;6.00;;;;;;;25.06;52.40;100789.16;5045116;28;20037;-71
2021/06/17 06:48:13;;;;;;;12.30;6.10;;;;;;;25.18;52.57;100781.03;5038904;28;20024;-71
2021/06/17 06:50:39;;;;;;;11.80;6.40;;;;;;;25.19;52.87;100779.97;5028021;28;20414;-71
2021/06/17 06:53:05;;;;;;;9.90;5.90;;;;;;;25.17;53.13;100781.28;5038639;28;20452;-71
2021/06/17 06:55:31;;;;;;;9.45;5.65;;;;;;;25.46;52.12;100779.13;5035796;28;20021;-71
2021/06/17 06:57:56;;;;;;;8.82;5.22;;;;;;;25.79;51.21;100777.19;5040383;28;20033;-71
2021/06/17 07:00:22;;;;;;;9.77;5.22;;;;;;;26.04;50.92;100779.19;5032778;28;20401;-71
2021/06/17 07:02:47;;;;;;;10.77;5.60;;;;;;;26.88;49.42;100777.28;5040806;28;20029;-71
2021/06/17 07:05:14;;;;;;;15.13;6.75;;;;;;;27.19;47.98;100779.94;5044526;28;20486;-71
2021/06/17 07:07:40;;;;;;;9.52;5.53;;;;;;;27.22;47.39;100784.72;5036560;28;20078;-71
2021/06/17 07:10:07;;;;;;;7.75;5.13;;;;;;;27.47;46.92;100783.13;5049386;28;20029;-71
2021/06/17 07:12:33;;;;;;;5.85;4.63;;;;;;;27.90;45.51;100787.00;5036242;28;20143;-71
2021/06/17 07:14:59;;;;;;;9.55;5.30;;;;;;;28.22;45.53;100782.31;5033758;28;20125;-71
2021/06/17 07:17:25;;;;;;;17.67;6.00;;;;;;;28.37;44.26;100787.59;5032063;28;20127;-71
2021/06/17 07:19:55;;;;;;;9.90;5.50;;;;;;;28.60;44.90;100788.00;5026276;28;20076;-71
2021/06/17 07:22:22;;;;;;;9.90;4.88;;;;;;;28.27;44.34;100798.28;5043018;28;20036;-71
2021/06/17 07:24:48;;;;;;;13.55;5.70;;;;;;;28.13;43.98;100788.22;5044024;28;20065;-70
2021/06/17 07:27:13;;;;;;;8.38;4.53;;;;;;;28.04;44.88;100789.88;5026685;28;20060;-71
2021/06/17 07:29:39;;;;;;;17.65;5.43;;;;;;;27.68;45.89;100781.97;5051329;28;20040;-71
2021/06/17 07:32:06;;;;;;;13.68;5.60;;;;;;;27.29;46.50;100785.25;5039210;28;20045;-71
2021/06/17 07:34:31;;;;;;;9.40;5.20;;;;;;;27.05;47.69;100765.56;5022734;28;20418;-71
2021/06/17 07:36:57;;;;;;;12.27;4.88;;;;;;;27.49;48.06;100757.03;5028144;28;20033;-72
2021/06/17 07:39:23;;;;;;;6.80;4.55;;;;;;;28.43;45.43;100746.50;5044906;28;20037;-71
2021/06/17 07:41:49;;;;;;;13.90;4.78;;;;;;;28.70;43.88;100754.03;5044383;28;20748;-71
2021/06/17 07:44:15;;;;;;;11.80;4.50;;;;;;;29.14;43.77;100746.22;5026530;28;20034;-71
2021/06/17 07:46:40;;;;;;;9.77;5.13;;;;;;;29.26;43.21;100760.78;5037482;28;20043;-71
2021/06/17 07:49:06;;;;;;;8.15;4.70;;;;;;;29.67;42.42;100772.94;5036000;28;20509;-72
2021/06/17 07:51:31;;;;;;;9.57;4.75;;;;;;;29.53;42.89;100788.03;5026174;28;20047;-72
2021/06/17 07:54:01;;;;;;;9.45;5.18;;;;;;;29.58;42.27;100794.13;5043144;28;20025;-71
2021/06/17 07:56:28;;;;;;;16.02;4.63;;;;;;;29.74;42.08;100791.28;5019710;28;20025;-71
2021/06/17 07:58:53;;;;;;;9.82;4.75;;;;;;;30.00;41.63;100802.47;5041973;28;20071;-71
2021/06/17 08:01:19;;;;;;;9.30;5.03;;;;;;;30.42;41.66;100812.38;5025905;28;20547;-72
2021/06/17 08:03:44;;;;;;;12.18;4.55;;;;;;;30.41;40.26;100801.97;5045812;28;20273;-71
2021/06/17 08:06:10;;;;;;;12.00;4.40;;;;;;;30.73;41.96;100803.88;5022080;28;20036;-72
2021/06/17 08:08:35;;;;;;;9.55;4.65;;;;;;;31.42;39.65;100811.34;5042969;28;20112;-72
2021/06/17 08:11:01;;;;;;;9.15;4.88;;;;;;;31.79;38.23;100814.94;5022940;28;20048;-72
2021/06/17 08:13:26;;;;;;;5.97;3.92;;;;;;;32.29;37.79;100798.13;5032003;28;20136;-72
2021/06/17 08:15:52;;;;;;;11.52;4.10;;;;;;;32.58;34.57;100795.84;5035468;28;20041;-72
2021/06/17 08:18:18;;;;;;;19.13;4.00;;;;;;;32.78;35.85;100804.50;5033783;28;20021;-72
2021/06/17 08:20:43;;;;;;;8.38;3.42;;;;;;;33.05;35.01;100795.50;5044335;28;20032;-72
2021/06/17 08:23:10;;;;;;;6.72;3.22;;;;;;;32.95;33.90;100804.63;5038647;28;20055;-72
2021/06/17 08:25:36;;;;;;;8.80;2.88;;;;;;;33.22;32.97;100800.19;5045613;28;20040;-72
2021/06/17 08:28:04;;;;;;;4.88;3.42;;;;;;;33.13;34.30;100807.41;5037471;28;20055;-72
2021/06/17 08:30:32;;;;;;;3.97;2.42;;;;;;;33.50;33.16;100792.72;5033251;28;20037;-72
2021/06/17 08:32:58;;;;;;;6.43;3.00;;;;;;;33.79;31.90;100794.09;5035785;28;20033;-72
2021/06/17 08:35:23;;;;;;;6.03;3.03;;;;;;;33.80;31.51;100793.00;5044550;28;20071;-72
2021/06/17 08:37:49;;;;;;;9.65;3.35;;;;;;;33.94;31.13;100792.84;5025985;28;20037;-72
2021/06/17 08:40:16;;;;;;;8.15;2.70;;;;;;;34.11;32.41;100787.50;5041958;28;20485;-72
2021/06/17 08:42:41;;;;;;;9.98;2.95;;;;;;;34.55;31.25;100787.53;5027530;28;20045;-72
2021/06/17 08:45:09;;;;;;;7.22;2.67;;;;;;;34.68;31.21;100781.19;5041336;28;20036;-72
2021/06/17 08:47:36;;;;;;;9.30;3.83;;;;;;;34.66;30.91;100779.91;5036934;28;20037;-72
2021/06/17 08:50:05;;;;;;;4.22;3.22;;;;;;;34.78;29.68;100769.31;5037625;28;20091;-72
2021/06/17 08:52:33;;;;;;;7.82;3.20;;;;;;;34.85;30.26;100771.50;5023813;28;20049;-73
2021/06/17 08:55:17;;;;;;;3.70;2.72;;;;;;;35.01;29.77;100769.06;5009760;28;20127;-73
2021/06/17 08:57:46;;;;;;;5.00;2.75;;;;;;;35.02;31.34;100766.06;5019641;28;20040;-72
2021/06/17 09:00:20;;;;;;;4.88;2.78;;;;;;;34.82;29.86;100766.75;5032594;28;20045;-72
2021/06/17 09:02:57;;;;;;;7.75;2.75;;;;;;;35.12;29.25;100764.13;5026794;28;20451;-73
2021/06/17 09:05:25;;;;;;;5.40;2.65;;;;;;;35.17;31.16;100762.06;5034004;28;20022;-73
2021/06/17 09:07:51;;;;;;;9.75;2.78;;;;;;;35.18;29.42;100758.25;5043721;28;20567;-73
2021/06/17 09:10:17;;;;;;;8.02;3.30;;;;;;;34.98;29.28;100757.06;5042073;28;20033;-72
2021/06/17 09:12:52;;;;;;;4.03;2.58;;;;;;;35.31;28.95;100747.59;5042833;28;20091;-72
2021/06/17 09:15:37;;;;;;;14.55;4.45;;;;;;;35.28;27.26;100749.00;5046620;28;20170;-72
2021/06/17 09:18:18;;;;;;;5.57;3.17;;;;;;;34.89;29.18;100738.22;5044852;28;20031;-72
2021/06/17 09:21:05;;;;;;;9.13;3.10;;;;;;;35.28;30.14;100740.94;5030783;28;20063;-73
2021/06/17 09:23:38;;;;;;;6.78;3.08;;;;;;;35.44;30.45;100728.50;5029240;28;20056;-73
2021/06/17 09:26:17;;;;;;;9.57;3.30;;;;;;;35.28;28.50;100728.28;5044543;28;20083;-72
2021/06/17 09:29:07;;;;;;;5.35;2.95;;;;;;;34.41;29.69;100728.50;5048998;28;20048;-73
2021/06/17 09:31:36;;;;;;;7.13;3.45;;;;;;;34.37;30.52;100722.16;5046043;28;20045;-72
2021/06/17 09:34:05;;;;;;;9.30;3.03;;;;;;;34.28;29.95;100726.75;5043745;28;20064;-73
2021/06/17 09:36:32;;;;;;;6.15;3.33;;;;;;;34.43;30.76;100725.47;5028906;28;20072;-72
2021/06/17 09:39:10;;;;;;;8.68;2.95;;;;;;;34.61;31.55;100721.66;5028813;28;20351;-73
2021/06/17 09:41:44;;;;;;;7.80;3.50;;;;;;;34.77;30.49;100723.84;5047794;28;20071;-73
2021/06/17 09:44:30;;;;;;;6.43;3.17;;;;;;;34.48;30.64;100728.00;5046909;28;20025;-73
2021/06/17 09:47:15;;;;;;;5.78;3.70;;;;;;;34.19;31.07;100718.72;5043501;28;20033;-72
2021/06/17 09:49:42;;;;;;;7.78;3.17;;;;;;;34.18;31.67;100714.44;5010475;28;20051;-72
2021/06/17 09:52:09;;;;;;;11.73;3.33;;;;;;;34.22;30.71;100718.06;5026314;28;20132;-72
2021/06/17 09:54:39;;;;;;;7.38;3.30;;;;;;;34.47;31.01;100726.41;5046313;28;20292;-72
2021/06/17 09:57:11;;;;;;;15.77;3.78;;;;;;;34.00;31.96;100719.00;5028103;28;20032;-72
2021/06/17 09:59:40;;;;;;;15.70;4.43;;;;;;;34.04;30.65;100708.38;5043533;28;20072;-73
2021/06/17 10:02:08;;;;;;;15.43;3.80;;;;;;;34.32;32.38;100708.88;5046419;28;20053;-73
2021/06/17 10:04:34;;;;;;;7.20;3.85;;;;;;;34.29;31.58;100701.47;5028821;28;20029;-73
2021/06/17 10:07:00;;;;;;;8.77;3.13;;;;;;;34.01;31.86;100704.44;5037372;28;20402;-72
2021/06/17 10:09:26;;;;;;;8.15;3.40;;;;;;;34.18;31.38;100705.59;5047183;28;20064;-72
2021/06/17 10:11:52;;;;;;;8.88;4.10;;;;;;;34.14;31.88;100697.31;5044985;28;20170;-73
2021/06/17 10:14:18;;;;;;;6.75;3.40;;;;;;;33.87;32.20;100690.34;5045145;28;20058;-72
2021/06/17 10:16:44;;;;;;;8.95;3.90;;;;;;;33.85;32.34;100681.81;5032806;28;20033;-73
2021/06/17 10:19:11;;;;;;;7.38;3.47;;;;;;;34.43;31.81;100682.44;5045566;28;20032;-72
2021/06/17 10:21:37;;;;;;;4.30;3.38;;;;;;;34.28;30.46;100689.91;5042685;28;20043;-73
2021/06/17 10:24:12;;;;;;;13.40;3.88;;;;;;;34.29;30.22;100679.94;5042333;28;20029;-73
2021/06/17 10:26:52;;;;;;;7.35;3.50;;;;;;;34.60;31.69;100684.28;5046221;28;20471;-72
2021/06/17 10:29:26;;;;;;;9.07;4.13;;;;;;;34.67;30.36;100682.69;5044048;28;20044;-72
2021/06/17 10:31:56;;;;;;;12.35;3.67;;;;;;;35.02;31.56;100679.09;5046648;28;20110;-73
2021/06/17 10:34:24;;;;;;;9.95;3.88;;;;;;;34.80;31.61;100688.22;5027377;28;20043;-73
2021/06/17 10:37:13;;;;;;;12.25;3.88;;;;;;;34.41;32.53;100688.13;5041736;28;20045;-73
2021/06/17 10:39:55;;;;;;;4.10;3.60;;;;;;;34.80;32.27;100685.53;5025794;28;20447;-73
2021/06/17 10:42:32;;;;;;;7.07;3.25;;;;;;;34.98;32.22;100686.22;5042018;28;20033;-73
2021/06/17 10:45:04;;;;;;;5.85;4.15;;;;;;;35.04;30.99;100693.81;5026149;28;20045;-72
2021/06/17 10:47:36;;;;;;;11.73;3.35;;;;;;;34.78;30.62;100685.06;5039728;28;20140;-73
2021/06/17 10:50:03;;;;;;;11.18;3.53;;;;;;;34.84;31.03;100695.31;5043860;28;20484;-73
2021/06/17 10:52:31;;;;;;;11.85;4.40;;;;;;;34.61;30.70;100688.56;5029728;28;20025;-73
2021/06/17 10:55:04;;;;;;;8.63;4.15;;;;;;;34.01;31.15;100700.97;5043312;28;20131;-73
2021/06/17 10:57:41;;;;;;;9.05;3.45;;;;;;;34.39;30.82;100705.72;5046552;28;20064;-73
2021/06/17 11:00:23;;;;;;;8.30;3.65;;;;;;;34.82;31.08;100711.00;5045283;28;20067;-73
2021/06/17 11:02:53;;;;;;;7.60;3.45;;;;;;;34.75;30.84;100709.91;5035693;28;20502;-72
2021/06/17 11:08:19;;;;;;;12.27;4.20;;;;;;;35.00;32.21;100716.31;5047204;28;20072;-73
2021/06/17 11:10:51;;;;;;;6.72;3.63;;;;;;;35.27;30.13;100717.81;5019439;28;20110;-73
2021/06/17 11:13:40;;;;;;;8.10;3.80;;;;;;;35.31;31.11;100721.44;5044020;28;20107;-73
2021/06/17 11:16:11;;;;;;;5.97;3.80;;;;;;;35.47;30.01;100722.47;5032096;28;20472;-73
2021/06/17 11:18:40;;;;;;;11.57;4.00;;;;;;;35.41;30.45;100726.44;5032665;28;20041;-73
2021/06/17 11:21:28;;;;;;;7.80;3.85;;;;;;;35.79;30.16;100716.69;5040974;28;20033;-73
2021/06/17 11:24:19;;;;;;;6.18;3.80;;;;;;;35.89;30.71;100726.34;5022589;28;20052;-73
2021/06/17 11:26:46;;;;;;;7.47;3.30;;;;;;;35.90;30.18;100738.69;5044017;28;20556;-73
2021/06/17 11:29:15;;;;;;;5.90;4.03;;;;;;;35.66;30.16;100734.72;5026876;28;20040;-73
2021/06/17 11:31:45;;;;;;;8.38;4.20;;;;;;;35.64;30.91;100739.63;5036928;28;20024;-73